createdAt,value
2018-12-02T06:15:43.189Z,1.10
2018-12-02T06:18:11.576Z,1.30
2018-12-02T06:20:40.430Z,1.30
2018-12-02T06:23:08.834Z,1.30
2018-12-02T06:25:37.768Z,1.30
2018-12-02T06:28:06.518Z,1.30
2018-12-02T06:30:35.431Z,1.40
2018-12-02T06:33:04.830Z,1.40
2018-12-02T06:35:33.248Z,1.40
2018-12-02T06:38:03.418Z,1.50
2018-12-02T06:40:32.748Z,1.60
2018-12-02T06:43:01.235Z,1.60
2018-12-02T06:45:30.114Z,1.70
2018-12-02T06:47:59.206Z,1.80
2018-12-02T06:50:28.668Z,1.90
2018-12-02T06:52:58.293Z,2.00
2018-12-02T06:55:44.279Z,2.00
2018-12-02T06:59:56.358Z,2.20
2018-12-02T07:02:50.060Z,2.30
2018-12-02T07:05:25.807Z,2.40
2018-12-02T07:07:54.367Z,2.40
2018-12-02T07:10:23.074Z,2.40
2018-12-02T07:12:51.916Z,2.40
2018-12-02T07:15:20.329Z,2.50
2018-12-02T07:17:51.522Z,2.50
2018-12-02T07:20:23.222Z,2.50
2018-12-02T07:22:56.850Z,2.50
2018-12-02T07:25:31.214Z,3.20
2018-12-02T07:28:00.502Z,3.60
2018-12-02T07:30:29.937Z,4.90
2018-12-02T07:32:58.360Z,5.00
2018-12-02T07:35:26.766Z,4.60
2018-12-02T07:37:56.703Z,4.30
2018-12-02T07:40:33.129Z,4.10
2018-12-02T07:43:02.679Z,3.90
2018-12-02T07:45:31.304Z,3.80
2018-12-02T07:48:00.079Z,3.60
2018-12-02T07:50:28.506Z,3.60
2018-12-02T07:52:57.140Z,3.50
2018-12-02T07:55:26.160Z,3.50
2018-12-02T07:57:55.068Z,3.50
2018-12-02T08:00:23.752Z,3.50
2018-12-02T08:02:52.496Z,3.50
2018-12-02T08:05:21.156Z,3.40
2018-12-02T08:07:50.934Z,3.40
2018-12-02T08:10:19.941Z,3.40
2018-12-02T08:12:48.370Z,3.40
2018-12-02T08:15:19.281Z,3.40
2018-12-02T08:17:47.935Z,3.40
2018-12-02T08:20:18.354Z,3.40
2018-12-02T08:22:51.289Z,3.40
2018-12-02T08:25:19.278Z,3.40
2018-12-02T08:27:48.521Z,3.50
2018-12-02T08:30:20.440Z,3.50
2018-12-02T08:32:49.407Z,3.50
2018-12-02T08:35:19.300Z,3.60
2018-12-02T08:37:49.401Z,3.60
2018-12-02T08:40:18.106Z,3.60
2018-12-02T08:42:46.527Z,3.70
2018-12-02T08:45:16.235Z,3.70
2018-12-02T08:47:45.737Z,3.80
2018-12-02T08:50:15.775Z,3.80
2018-12-02T08:52:45.226Z,3.80
2018-12-02T08:55:15.989Z,3.90
2018-12-02T08:57:45.323Z,3.90
2018-12-02T09:00:17.116Z,3.90
2018-12-02T09:02:48.815Z,3.90
2018-12-02T09:05:17.561Z,3.90
2018-12-02T09:07:46.565Z,3.90
2018-12-02T09:10:20.168Z,3.90
2018-12-02T09:12:49.836Z,3.90
2018-12-02T09:15:18.420Z,3.80
2018-12-02T09:17:47.086Z,3.80
2018-12-02T09:20:20.238Z,3.90
2018-12-02T09:22:48.886Z,3.90
2018-12-02T09:25:17.480Z,3.90
2018-12-02T09:27:46.471Z,3.90
2018-12-02T09:30:20.395Z,4.00
2018-12-02T09:32:48.856Z,4.10
2018-12-02T09:35:17.469Z,4.20
2018-12-02T09:37:46.280Z,4.20
2018-12-02T09:40:15.866Z,4.20
2018-12-02T09:42:47.785Z,4.30
2018-12-02T09:45:17.684Z,4.30
2018-12-02T09:47:46.493Z,4.30
2018-12-02T09:50:16.002Z,4.30
2018-12-02T09:52:44.696Z,4.40
2018-12-02T09:55:32.462Z,4.50
2018-12-02T09:58:01.172Z,4.60
2018-12-02T10:00:34.216Z,4.60
2018-12-02T10:02:58.681Z,4.70
2018-12-02T10:05:27.089Z,4.80
2018-12-02T10:07:55.518Z,4.80
2018-12-02T10:10:24.012Z,4.80
2018-12-02T10:12:56.310Z,4.90
2018-12-02T10:15:24.748Z,4.90
2018-12-02T10:17:53.658Z,4.90
2018-12-02T10:20:22.356Z,4.90
2018-12-02T10:22:51.109Z,4.90
2018-12-02T10:25:20.346Z,4.90
2018-12-02T10:27:49.055Z,4.90
2018-12-02T10:30:20.188Z,5.10
2018-12-02T10:32:49.144Z,5.10
2018-12-02T10:35:17.924Z,5.10
2018-12-02T10:37:47.751Z,5.10
2018-12-02T10:40:18.344Z,5.10
2018-12-02T10:42:47.604Z,5.10
2018-12-02T10:45:21.249Z,5.00
2018-12-02T10:47:50.954Z,5.00
2018-12-02T10:50:27.842Z,5.10
2018-12-02T10:52:58.197Z,5.10
2018-12-02T10:55:38.668Z,5.10
2018-12-02T10:58:11.082Z,5.10
2018-12-02T11:00:44.916Z,5.10
2018-12-02T11:03:13.992Z,5.10
2018-12-02T11:05:42.951Z,5.10
2018-12-02T11:08:11.662Z,5.10
2018-12-02T11:10:40.119Z,5.10
2018-12-02T11:13:08.834Z,5.30
2018-12-02T11:15:37.681Z,5.30
2018-12-02T11:18:08.938Z,5.40
2018-12-02T11:20:38.158Z,5.50
2018-12-02T11:23:08.043Z,5.70
2018-12-02T11:25:37.216Z,5.80
2018-12-02T11:28:06.740Z,5.90
2018-12-02T11:30:35.688Z,5.90
2018-12-02T11:33:05.058Z,6.00
2018-12-02T11:35:33.482Z,6.10
2018-12-02T11:38:02.017Z,6.10
2018-12-02T11:40:30.517Z,6.10
2018-12-02T11:42:59.721Z,6.00
2018-12-02T11:45:28.369Z,6.00
2018-12-02T11:47:57.099Z,6.00
2018-12-02T11:50:26.725Z,6.00
2018-12-02T11:52:55.333Z,6.00
2018-12-02T11:55:24.036Z,5.90
2018-12-02T11:57:52.755Z,5.90
2018-12-02T12:00:26.625Z,5.80
2018-12-02T12:02:56.310Z,5.80
2018-12-02T12:05:24.745Z,5.80
2018-12-02T12:07:53.222Z,5.70
2018-12-02T12:10:24.999Z,5.60
2018-12-02T12:12:55.861Z,5.60
2018-12-02T12:15:25.307Z,5.60
2018-12-02T12:17:54.655Z,5.50
2018-12-02T12:20:27.483Z,5.50
2018-12-02T12:22:56.579Z,5.50
2018-12-02T12:25:25.622Z,5.60
2018-12-02T12:27:55.726Z,5.50
2018-12-02T12:30:25.763Z,5.60
2018-12-02T12:32:55.163Z,5.60
2018-12-02T12:35:24.150Z,5.70
2018-12-02T12:37:52.605Z,5.60
2018-12-02T12:40:32.321Z,5.70
2018-12-02T12:43:11.439Z,5.70
2018-12-02T12:45:40.120Z,5.80
2018-12-02T12:48:08.627Z,5.80
2018-12-02T12:50:37.487Z,5.80
2018-12-02T12:53:06.141Z,5.80
2018-12-02T12:55:34.586Z,5.90
2018-12-02T12:58:03.624Z,5.90
2018-12-02T13:00:32.852Z,6.00
2018-12-02T13:03:01.267Z,6.00
2018-12-02T13:05:29.976Z,6.00
2018-12-02T13:07:58.873Z,6.00
2018-12-02T13:10:27.495Z,6.00
2018-12-02T13:12:55.903Z,6.00
2018-12-02T13:15:24.634Z,6.10
2018-12-02T13:18:03.380Z,6.10
2018-12-02T13:20:39.514Z,6.10
2018-12-02T13:23:08.310Z,6.20
2018-12-02T13:25:36.985Z,6.20
2018-12-02T13:28:07.175Z,6.30
2018-12-02T13:30:35.903Z,6.40
2018-12-02T13:33:05.657Z,6.40
2018-12-02T13:35:34.353Z,6.60
2018-12-02T13:38:03.117Z,6.80
2018-12-02T13:40:31.586Z,7.00
2018-12-02T13:43:01.751Z,7.10
2018-12-02T13:45:31.385Z,7.30
2018-12-02T13:48:00.023Z,7.40
2018-12-02T13:50:28.809Z,7.50
2018-12-02T13:52:57.812Z,7.60
2018-12-02T13:55:29.962Z,7.70
2018-12-02T13:57:59.575Z,7.70
2018-12-02T14:00:29.007Z,7.80
2018-12-02T14:03:05.725Z,7.80
2018-12-02T14:05:35.005Z,7.80
2018-12-02T14:08:03.926Z,7.90
2018-12-02T14:10:32.630Z,7.90
2018-12-02T14:13:04.515Z,7.90
2018-12-02T14:15:45.970Z,7.90
2018-12-02T14:18:22.590Z,8.00
2018-12-02T14:20:51.065Z,8.00
2018-12-02T14:23:19.923Z,8.00
2018-12-02T14:25:49.301Z,8.00
2018-12-02T14:28:21.702Z,8.00
2018-12-02T14:30:50.655Z,8.00
2018-12-02T14:33:19.565Z,8.00
2018-12-02T14:35:48.555Z,8.10
2018-12-02T14:38:17.268Z,8.10
2018-12-02T14:40:46.308Z,8.10
2018-12-02T14:43:15.913Z,8.10
2018-12-02T14:45:44.374Z,8.20
2018-12-02T14:48:13.562Z,8.20
2018-12-02T14:50:42.311Z,8.20
2018-12-02T14:53:10.968Z,8.20
2018-12-02T14:55:39.612Z,8.20
2018-12-02T14:58:08.415Z,8.20
2018-12-02T15:00:36.879Z,8.20
2018-12-02T15:03:06.025Z,8.30
2018-12-02T15:05:34.791Z,8.30
2018-12-02T15:08:03.261Z,8.40
2018-12-02T15:10:31.708Z,8.60
2018-12-02T15:13:01.751Z,8.70
2018-12-02T15:15:30.439Z,8.80
2018-12-02T15:17:59.204Z,8.90
2018-12-02T15:20:27.704Z,9.10
2018-12-02T15:22:56.439Z,9.20
2018-12-02T15:25:25.772Z,9.30
2018-12-02T15:27:57.256Z,9.40
2018-12-02T15:30:26.247Z,9.50
2018-12-02T15:32:54.888Z,9.50
2018-12-02T15:35:23.599Z,9.60
2018-12-02T15:37:52.062Z,9.60
2018-12-02T15:40:20.524Z,9.60
2018-12-02T15:42:51.555Z,9.60
2018-12-02T15:45:21.080Z,9.60
2018-12-02T15:47:49.847Z,9.70
2018-12-02T15:50:21.825Z,9.60
2018-12-02T15:52:51.125Z,9.60
2018-12-02T15:55:23.295Z,9.60
2018-12-02T15:57:51.844Z,9.60
2018-12-02T16:00:24.720Z,9.60
2018-12-02T16:02:53.204Z,9.70
2018-12-02T16:05:22.586Z,9.70
2018-12-02T16:07:51.567Z,9.70
2018-12-02T16:10:20.331Z,9.70
2018-12-02T16:12:50.180Z,9.70
2018-12-02T16:15:20.056Z,9.70
2018-12-02T16:17:49.756Z,9.70
2018-12-02T16:20:26.897Z,9.70
2018-12-02T16:22:55.404Z,9.70
2018-12-02T16:25:25.077Z,9.70
2018-12-02T16:27:53.865Z,9.80
2018-12-02T16:30:22.323Z,9.90
2018-12-02T16:32:54.345Z,10.00
2018-12-02T16:35:25.173Z,10.00
2018-12-02T16:37:55.085Z,10.10
2018-12-02T16:40:27.225Z,10.00
2018-12-02T16:42:58.368Z,10.10
2018-12-02T16:45:27.015Z,10.00
2018-12-02T16:47:57.278Z,10.00
2018-12-02T16:50:30.537Z,10.00
2018-12-02T16:53:02.902Z,10.00
2018-12-02T16:55:34.127Z,10.10
2018-12-02T16:58:11.017Z,10.00
2018-12-02T17:00:47.714Z,10.00
2018-12-02T17:03:16.412Z,10.00
2018-12-02T17:05:45.115Z,10.00
2018-12-02T17:08:13.993Z,10.00
2018-12-02T17:10:50.608Z,10.10
2018-12-02T17:13:11.721Z,10.00
2018-12-02T17:15:40.438Z,10.10
2018-12-02T17:18:09.717Z,10.10
2018-12-02T17:20:38.406Z,10.10
2018-12-02T17:23:06.893Z,10.10
2018-12-02T17:25:35.383Z,10.20
2018-12-02T17:28:03.829Z,10.20
2018-12-02T17:30:43.182Z,10.20
2018-12-02T17:33:11.673Z,10.10
2018-12-02T17:35:40.333Z,10.10
2018-12-02T17:38:09.883Z,10.20
2018-12-02T17:40:38.283Z,10.20
2018-12-02T17:43:08.932Z,10.20
2018-12-02T17:45:37.592Z,10.10
2018-12-02T17:48:06.946Z,10.20
2018-12-02T17:50:35.915Z,10.20
2018-12-02T17:53:05.435Z,10.30
2018-12-02T17:55:34.134Z,10.30
2018-12-02T17:58:02.922Z,10.30
2018-12-02T18:00:31.570Z,10.40
2018-12-02T18:03:02.307Z,10.40
2018-12-02T18:05:34.051Z,10.30
2018-12-02T18:08:02.817Z,10.30
2018-12-02T18:10:31.227Z,10.30
2018-12-02T18:12:59.842Z,10.40
2018-12-02T18:15:28.531Z,10.30
2018-12-02T18:17:57.547Z,10.30
2018-12-02T18:20:26.289Z,10.30
2018-12-02T18:22:55.208Z,10.30
2018-12-02T18:25:24.163Z,10.30
2018-12-02T18:27:53.082Z,10.20
2018-12-02T18:30:23.998Z,10.20
2018-12-02T18:32:55.678Z,10.10
2018-12-02T18:35:32.155Z,10.00
2018-12-02T18:38:20.221Z,9.90
2018-12-02T18:40:52.366Z,10.00
2018-12-02T18:43:21.751Z,10.00
2018-12-02T18:45:50.845Z,10.00
2018-12-02T18:48:19.322Z,10.00
2018-12-02T18:50:47.841Z,10.00
2018-12-02T18:53:16.648Z,10.00
2018-12-02T18:55:45.335Z,10.00
2018-12-02T18:58:13.984Z,10.00
2018-12-02T19:00:45.372Z,10.00
2018-12-02T19:03:14.416Z,10.00
2018-12-02T19:05:43.752Z,10.00
2018-12-02T19:08:12.445Z,10.00
2018-12-02T19:10:41.712Z,10.00
2018-12-02T19:13:10.685Z,10.00
2018-12-02T19:15:39.483Z,9.90
2018-12-02T19:18:08.111Z,9.90
2018-12-02T19:20:37.043Z,10.00
2018-12-02T19:23:09.130Z,9.90
2018-12-02T19:25:37.712Z,9.90
2018-12-02T19:28:06.545Z,9.80
2018-12-02T19:30:35.449Z,9.80
2018-12-02T19:33:03.954Z,9.80
2018-12-02T19:35:34.703Z,9.80
2018-12-02T19:38:14.138Z,9.80
2018-12-02T19:40:42.843Z,9.90
2018-12-02T19:43:11.315Z,9.90
2018-12-02T19:45:40.183Z,9.90
2018-12-02T19:48:08.892Z,9.90
2018-12-02T19:50:37.337Z,9.90
2018-12-02T19:53:06.763Z,9.90
2018-12-02T19:55:35.215Z,9.90
2018-12-02T19:58:04.255Z,9.90
2018-12-02T20:00:38.502Z,9.90
2018-12-02T20:03:07.120Z,9.90
2018-12-02T20:05:35.572Z,9.90
2018-12-02T20:08:04.234Z,10.00
2018-12-02T20:10:32.975Z,10.00
2018-12-02T20:13:05.602Z,10.00
2018-12-02T20:15:34.575Z,10.10
2018-12-02T20:18:03.948Z,10.20
2018-12-02T20:20:39.461Z,10.20
2018-12-02T20:23:09.221Z,10.30
2018-12-02T20:25:37.971Z,10.30
2018-12-02T20:28:09.095Z,10.30
2018-12-02T20:30:38.621Z,10.30
2018-12-02T20:33:07.131Z,10.30
2018-12-02T20:35:36.181Z,10.30
2018-12-02T20:38:05.340Z,10.30
2018-12-02T20:40:33.849Z,10.30
2018-12-02T20:43:02.269Z,10.30
2018-12-02T20:45:30.824Z,10.30
2018-12-02T20:47:59.496Z,10.30
2018-12-02T20:50:28.154Z,10.30
2018-12-02T20:52:57.210Z,10.30
2018-12-02T20:55:27.277Z,10.30
2018-12-02T20:57:57.656Z,10.30
2018-12-02T21:00:26.603Z,10.30
2018-12-02T21:02:57.505Z,10.30
2018-12-02T21:05:30.969Z,10.40
2018-12-02T21:07:59.416Z,10.40
2018-12-02T21:10:28.052Z,10.40
2018-12-02T21:12:56.546Z,10.40
2018-12-02T21:15:24.982Z,10.40
2018-12-02T21:17:53.574Z,10.40
2018-12-02T21:20:22.047Z,10.40
2018-12-02T21:22:50.483Z,10.40
2018-12-02T21:25:21.127Z,10.40
2018-12-02T21:27:49.886Z,10.50
2018-12-02T21:30:20.996Z,10.50
2018-12-02T21:32:49.599Z,10.50
2018-12-02T21:35:18.342Z,10.50
2018-12-02T21:37:47.578Z,10.60
2018-12-02T21:40:17.197Z,10.60
2018-12-02T21:42:45.962Z,10.60
2018-12-02T21:45:15.869Z,10.60
2018-12-02T21:47:47.582Z,10.60
2018-12-02T21:50:18.695Z,10.70
2018-12-02T21:52:47.435Z,10.60
2018-12-02T21:55:16.408Z,10.60
2018-12-02T21:57:45.063Z,10.50
2018-12-02T22:00:22.143Z,10.40
2018-12-02T22:02:52.085Z,10.30
2018-12-02T22:05:20.684Z,10.20
2018-12-02T22:07:50.238Z,10.10
2018-12-02T22:10:26.908Z,10.00
2018-12-02T22:12:55.317Z,10.00
2018-12-02T22:15:23.728Z,9.90
2018-12-02T22:17:52.431Z,9.90
2018-12-02T22:20:21.100Z,9.90
2018-12-02T22:22:50.952Z,9.80
2018-12-02T22:25:20.677Z,9.80
2018-12-02T22:27:52.634Z,9.80
2018-12-02T22:30:22.994Z,9.70
